sensor_id;sensor_type;location;lat;lon;timestamp;temperature;humidity
33903;DHT22;20194;50.950;5.346;2023-04-22T00:00:52;11.70;50.60
33903;DHT22;20194;50.950;5.346;2023-04-22T00:03:19;11.70;50.20
33903;DHT22;20194;50.950;5.346;2023-04-22T00:05:47;11.80;49.80
33903;DHT22;20194;50.950;5.346;2023-04-22T00:08:13;11.80;48.30
33903;DHT22;20194;50.950;5.346;2023-04-22T00:10:39;11.70;49.20
33903;DHT22;20194;50.950;5.346;2023-04-22T00:13:04;11.70;49.40
33903;DHT22;20194;50.950;5.346;2023-04-22T00:15:30;11.70;49.50
33903;DHT22;20194;50.950;5.346;2023-04-22T00:17:57;11.20;53.20
33903;DHT22;20194;50.950;5.346;2023-04-22T00:20:23;11.20;55.70
33903;DHT22;20194;50.950;5.346;2023-04-22T00:22:50;11.00;54.60
33903;DHT22;20194;50.950;5.346;2023-04-22T00:25:16;11.10;56.60
33903;DHT22;20194;50.950;5.346;2023-04-22T00:27:41;11.20;54.00
33903;DHT22;20194;50.950;5.346;2023-04-22T00:30:08;11.30;53.80
33903;DHT22;20194;50.950;5.346;2023-04-22T00:32:34;11.50;52.70
33903;DHT22;20194;50.950;5.346;2023-04-22T00:35:00;11.50;51.40
33903;DHT22;20194;50.950;5.346;2023-04-22T00:37:25;11.60;50.50
33903;DHT22;20194;50.950;5.346;2023-04-22T00:39:51;11.60;50.20
33903;DHT22;20194;50.950;5.346;2023-04-22T00:42:17;11.60;49.60
33903;DHT22;20194;50.950;5.346;2023-04-22T00:44:43;11.60;49.80
33903;DHT22;20194;50.950;5.346;2023-04-22T00:47:11;11.50;51.60
33903;DHT22;20194;50.950;5.346;2023-04-22T00:49:37;11.50;50.60
33903;DHT22;20194;50.950;5.346;2023-04-22T00:52:03;11.60;50.70
33903;DHT22;20194;50.950;5.346;2023-04-22T00:54:30;11.50;50.60
33903;DHT22;20194;50.950;5.346;2023-04-22T00:56:56;11.50;52.50
33903;DHT22;20194;50.950;5.346;2023-04-22T00:59:24;11.70;49.70
33903;DHT22;20194;50.950;5.346;2023-04-22T01:01:50;11.50;49.60
33903;DHT22;20194;50.950;5.346;2023-04-22T01:04:16;11.60;49.10
33903;DHT22;20194;50.950;5.346;2023-04-22T01:06:43;11.60;49.20
33903;DHT22;20194;50.950;5.346;2023-04-22T01:09:09;11.40;51.00
33903;DHT22;20194;50.950;5.346;2023-04-22T01:11:35;11.20;53.30
33903;DHT22;20194;50.950;5.346;2023-04-22T01:14:02;11.20;53.80
33903;DHT22;20194;50.950;5.346;2023-04-22T01:16:29;11.40;52.80
33903;DHT22;20194;50.950;5.346;2023-04-22T01:18:55;11.30;52.40
33903;DHT22;20194;50.950;5.346;2023-04-22T01:21:21;11.30;51.50
33903;DHT22;20194;50.950;5.346;2023-04-22T01:23:48;11.30;54.00
33903;DHT22;20194;50.950;5.346;2023-04-22T01:26:15;11.40;52.10
33903;DHT22;20194;50.950;5.346;2023-04-22T01:28:41;11.50;51.20
33903;DHT22;20194;50.950;5.346;2023-04-22T01:31:08;11.60;50.30
33903;DHT22;20194;50.950;5.346;2023-04-22T01:33:34;11.60;49.50
33903;DHT22;20194;50.950;5.346;2023-04-22T01:36:00;11.60;49.40
33903;DHT22;20194;50.950;5.346;2023-04-22T01:38:26;11.60;48.60
33903;DHT22;20194;50.950;5.346;2023-04-22T01:40:53;11.60;49.20
33903;DHT22;20194;50.950;5.346;2023-04-22T01:43:19;11.70;49.20
33903;DHT22;20194;50.950;5.346;2023-04-22T01:45:44;11.70;49.20
33903;DHT22;20194;50.950;5.346;2023-04-22T01:48:10;11.70;48.70
33903;DHT22;20194;50.950;5.346;2023-04-22T01:50:36;11.70;48.70
33903;DHT22;20194;50.950;5.346;2023-04-22T01:53:02;11.60;48.80
33903;DHT22;20194;50.950;5.346;2023-04-22T01:55:28;11.60;48.50
33903;DHT22;20194;50.950;5.346;2023-04-22T01:57:55;11.50;51.80
33903;DHT22;20194;50.950;5.346;2023-04-22T02:00:20;11.60;50.90
33903;DHT22;20194;50.950;5.346;2023-04-22T02:02:46;11.60;49.80
33903;DHT22;20194;50.950;5.346;2023-04-22T02:05:12;11.70;48.10
33903;DHT22;20194;50.950;5.346;2023-04-22T02:07:38;11.50;50.80
33903;DHT22;20194;50.950;5.346;2023-04-22T02:10:05;11.50;50.50
33903;DHT22;20194;50.950;5.346;2023-04-22T02:12:30;11.50;50.80
33903;DHT22;20194;50.950;5.346;2023-04-22T02:14:59;11.50;50.20
33903;DHT22;20194;50.950;5.346;2023-04-22T02:17:25;11.50;49.20
33903;DHT22;20194;50.950;5.346;2023-04-22T02:19:51;11.60;49.70
33903;DHT22;20194;50.950;5.346;2023-04-22T02:22:17;11.60;49.20
33903;DHT22;20194;50.950;5.346;2023-04-22T02:24:43;11.50;50.00
33903;DHT22;20194;50.950;5.346;2023-04-22T02:27:08;11.70;49.00
33903;DHT22;20194;50.950;5.346;2023-04-22T02:29:34;11.70;47.90
33903;DHT22;20194;50.950;5.346;2023-04-22T02:32:00;11.70;47.50
33903;DHT22;20194;50.950;5.346;2023-04-22T02:34:25;11.80;47.10
33903;DHT22;20194;50.950;5.346;2023-04-22T02:36:51;11.80;46.60
33903;DHT22;20194;50.950;5.346;2023-04-22T02:39:17;11.80;45.80
33903;DHT22;20194;50.950;5.346;2023-04-22T02:41:43;11.60;48.40
33903;DHT22;20194;50.950;5.346;2023-04-22T02:44:08;11.70;47.30
33903;DHT22;20194;50.950;5.346;2023-04-22T02:46:34;11.80;46.60
33903;DHT22;20194;50.950;5.346;2023-04-22T02:49:00;11.80;45.30
33903;DHT22;20194;50.950;5.346;2023-04-22T02:51:26;11.80;46.70
33903;DHT22;20194;50.950;5.346;2023-04-22T02:53:52;11.80;46.60
33903;DHT22;20194;50.950;5.346;2023-04-22T02:56:19;11.90;45.50
33903;DHT22;20194;50.950;5.346;2023-04-22T02:58:44;11.90;45.80
33903;DHT22;20194;50.950;5.346;2023-04-22T03:01:10;11.90;44.50
33903;DHT22;20194;50.950;5.346;2023-04-22T03:03:36;11.80;44.60
33903;DHT22;20194;50.950;5.346;2023-04-22T03:06:02;11.90;45.30
33903;DHT22;20194;50.950;5.346;2023-04-22T03:08:28;12.00;43.70
33903;DHT22;20194;50.950;5.346;2023-04-22T03:10:53;11.80;44.80
33903;DHT22;20194;50.950;5.346;2023-04-22T03:13:19;11.90;44.70
33903;DHT22;20194;50.950;5.346;2023-04-22T03:15:44;11.80;45.00
33903;DHT22;20194;50.950;5.346;2023-04-22T03:18:10;11.80;45.00
33903;DHT22;20194;50.950;5.346;2023-04-22T03:20:37;11.80;45.60
33903;DHT22;20194;50.950;5.346;2023-04-22T03:23:03;11.90;45.70
33903;DHT22;20194;50.950;5.346;2023-04-22T03:25:29;11.80;45.00
33903;DHT22;20194;50.950;5.346;2023-04-22T03:27:55;11.80;45.00
33903;DHT22;20194;50.950;5.346;2023-04-22T03:30:20;11.80;44.60
33903;DHT22;20194;50.950;5.346;2023-04-22T03:32:46;11.80;45.20
33903;DHT22;20194;50.950;5.346;2023-04-22T03:35:12;11.80;45.20
33903;DHT22;20194;50.950;5.346;2023-04-22T03:37:38;11.70;45.30
33903;DHT22;20194;50.950;5.346;2023-04-22T03:40:04;11.80;45.30
33903;DHT22;20194;50.950;5.346;2023-04-22T03:42:30;11.70;46.00
33903;DHT22;20194;50.950;5.346;2023-04-22T03:44:56;11.70;45.90
33903;DHT22;20194;50.950;5.346;2023-04-22T03:47:21;11.60;47.20
33903;DHT22;20194;50.950;5.346;2023-04-22T03:49:47;11.60;48.90
33903;DHT22;20194;50.950;5.346;2023-04-22T03:52:13;11.60;48.20
33903;DHT22;20194;50.950;5.346;2023-04-22T03:54:39;11.60;48.70
33903;DHT22;20194;50.950;5.346;2023-04-22T03:57:05;11.70;47.90
33903;DHT22;20194;50.950;5.346;2023-04-22T03:59:31;11.60;48.10
33903;DHT22;20194;50.950;5.346;2023-04-22T04:01:57;11.60;48.10
33903;DHT22;20194;50.950;5.346;2023-04-22T04:04:23;11.70;48.10
33903;DHT22;20194;50.950;5.346;2023-04-22T04:06:49;11.70;47.80
33903;DHT22;20194;50.950;5.346;2023-04-22T04:09:15;11.70;47.30
33903;DHT22;20194;50.950;5.346;2023-04-22T04:11:41;11.70;46.40
33903;DHT22;20194;50.950;5.346;2023-04-22T04:14:07;11.70;46.10
33903;DHT22;20194;50.950;5.346;2023-04-22T04:16:33;11.80;45.70
33903;DHT22;20194;50.950;5.346;2023-04-22T04:18:59;11.80;45.60
33903;DHT22;20194;50.950;5.346;2023-04-22T04:21:24;11.70;45.70
33903;DHT22;20194;50.950;5.346;2023-04-22T04:23:51;11.80;46.20
33903;DHT22;20194;50.950;5.346;2023-04-22T04:26:16;11.70;45.40
33903;DHT22;20194;50.950;5.346;2023-04-22T04:28:42;11.60;47.00
33903;DHT22;20194;50.950;5.346;2023-04-22T04:31:08;11.70;46.90
33903;DHT22;20194;50.950;5.346;2023-04-22T04:33:33;11.60;46.00
33903;DHT22;20194;50.950;5.346;2023-04-22T04:36:01;11.60;46.00
33903;DHT22;20194;50.950;5.346;2023-04-22T04:38:27;11.60;46.00
33903;DHT22;20194;50.950;5.346;2023-04-22T04:40:53;11.60;46.00
33903;DHT22;20194;50.950;5.346;2023-04-22T04:43:19;11.60;46.50
33903;DHT22;20194;50.950;5.346;2023-04-22T04:45:45;11.60;46.00
33903;DHT22;20194;50.950;5.346;2023-04-22T04:48:12;11.60;46.90
33903;DHT22;20194;50.950;5.346;2023-04-22T04:50:40;11.60;47.30
33903;DHT22;20194;50.950;5.346;2023-04-22T04:53:07;11.60;47.30
33903;DHT22;20194;50.950;5.346;2023-04-22T04:55:32;11.60;47.20
33903;DHT22;20194;50.950;5.346;2023-04-22T04:57:58;11.50;48.00
33903;DHT22;20194;50.950;5.346;2023-04-22T05:00:24;11.50;48.20
33903;DHT22;20194;50.950;5.346;2023-04-22T05:02:50;11.60;48.20
33903;DHT22;20194;50.950;5.346;2023-04-22T05:05:15;11.60;47.80
33903;DHT22;20194;50.950;5.346;2023-04-22T05:07:41;11.60;47.60
33903;DHT22;20194;50.950;5.346;2023-04-22T05:10:07;11.60;48.10
33903;DHT22;20194;50.950;5.346;2023-04-22T05:12:33;11.70;48.00
33903;DHT22;20194;50.950;5.346;2023-04-22T05:14:59;11.70;47.50
33903;DHT22;20194;50.950;5.346;2023-04-22T05:17:25;11.60;48.80
33903;DHT22;20194;50.950;5.346;2023-04-22T05:19:51;11.60;49.10
33903;DHT22;20194;50.950;5.346;2023-04-22T05:22:17;11.70;48.30
33903;DHT22;20194;50.950;5.346;2023-04-22T05:24:42;11.70;48.50
33903;DHT22;20194;50.950;5.346;2023-04-22T05:27:09;11.60;48.70
33903;DHT22;20194;50.950;5.346;2023-04-22T05:29:35;11.70;49.50
33903;DHT22;20194;50.950;5.346;2023-04-22T05:32:00;11.80;49.40
33903;DHT22;20194;50.950;5.346;2023-04-22T05:34:26;11.80;48.90
33903;DHT22;20194;50.950;5.346;2023-04-22T05:36:52;11.80;48.60
33903;DHT22;20194;50.950;5.346;2023-04-22T05:39:18;11.80;48.20
33903;DHT22;20194;50.950;5.346;2023-04-22T05:41:44;11.80;48.90
33903;DHT22;20194;50.950;5.346;2023-04-22T05:44:09;11.80;48.70
33903;DHT22;20194;50.950;5.346;2023-04-22T05:46:35;11.90;49.10
33903;DHT22;20194;50.950;5.346;2023-04-22T05:49:01;11.60;50.70
33903;DHT22;20194;50.950;5.346;2023-04-22T05:51:27;11.80;51.50
33903;DHT22;20194;50.950;5.346;2023-04-22T05:53:52;11.90;50.70
33903;DHT22;20194;50.950;5.346;2023-04-22T05:56:19;12.00;50.50
33903;DHT22;20194;50.950;5.346;2023-04-22T05:58:45;12.00;50.10
33903;DHT22;20194;50.950;5.346;2023-04-22T06:01:12;12.10;49.20
33903;DHT22;20194;50.950;5.346;2023-04-22T06:03:38;12.10;50.80
33903;DHT22;20194;50.950;5.346;2023-04-22T06:06:04;12.20;49.70
33903;DHT22;20194;50.950;5.346;2023-04-22T06:08:31;12.20;49.30
33903;DHT22;20194;50.950;5.346;2023-04-22T06:10:57;12.30;48.70
33903;DHT22;20194;50.950;5.346;2023-04-22T06:13:22;12.40;48.40
33903;DHT22;20194;50.950;5.346;2023-04-22T06:15:48;12.50;49.10
33903;DHT22;20194;50.950;5.346;2023-04-22T06:18:14;12.50;48.80
33903;DHT22;20194;50.950;5.346;2023-04-22T06:20:40;12.60;48.00
33903;DHT22;20194;50.950;5.346;2023-04-22T06:23:05;12.50;48.00
33903;DHT22;20194;50.950;5.346;2023-04-22T06:25:31;12.50;49.10
33903;DHT22;20194;50.950;5.346;2023-04-22T06:27:58;12.50;48.00
33903;DHT22;20194;50.950;5.346;2023-04-22T06:30:24;12.50;49.70
33903;DHT22;20194;50.950;5.346;2023-04-22T06:32:51;12.40;51.10
33903;DHT22;20194;50.950;5.346;2023-04-22T06:35:17;12.30;52.30
33903;DHT22;20194;50.950;5.346;2023-04-22T06:37:43;12.30;52.20
33903;DHT22;20194;50.950;5.346;2023-04-22T06:40:09;12.20;54.10
33903;DHT22;20194;50.950;5.346;2023-04-22T06:42:35;12.20;54.50
33903;DHT22;20194;50.950;5.346;2023-04-22T06:45:02;12.40;55.70
33903;DHT22;20194;50.950;5.346;2023-04-22T06:47:28;12.60;55.10
33903;DHT22;20194;50.950;5.346;2023-04-22T06:49:54;12.90;53.40
33903;DHT22;20194;50.950;5.346;2023-04-22T06:52:20;13.20;51.50
33903;DHT22;20194;50.950;5.346;2023-04-22T06:54:46;13.40;49.90
33903;DHT22;20194;50.950;5.346;2023-04-22T06:57:12;13.40;49.00
33903;DHT22;20194;50.950;5.346;2023-04-22T06:59:37;13.50;47.30
33903;DHT22;20194;50.950;5.346;2023-04-22T07:02:03;13.60;48.50
33903;DHT22;20194;50.950;5.346;2023-04-22T07:04:30;13.70;45.30
33903;DHT22;20194;50.950;5.346;2023-04-22T07:06:56;13.70;46.90
33903;DHT22;20194;50.950;5.346;2023-04-22T07:09:22;13.90;46.10
33903;DHT22;20194;50.950;5.346;2023-04-22T07:11:48;14.10;45.10
33903;DHT22;20194;50.950;5.346;2023-04-22T07:14:14;14.10;43.80
33903;DHT22;20194;50.950;5.346;2023-04-22T07:16:39;14.30;42.70
33903;DHT22;20194;50.950;5.346;2023-04-22T07:19:05;14.50;43.40
33903;DHT22;20194;50.950;5.346;2023-04-22T07:21:31;14.70;41.50
33903;DHT22;20194;50.950;5.346;2023-04-22T07:23:57;14.70;41.40
33903;DHT22;20194;50.950;5.346;2023-04-22T07:26:23;15.00;39.20
33903;DHT22;20194;50.950;5.346;2023-04-22T07:28:49;15.20;32.00
33903;DHT22;20194;50.950;5.346;2023-04-22T07:31:15;15.10;32.60
33903;DHT22;20194;50.950;5.346;2023-04-22T07:33:41;15.00;33.70
33903;DHT22;20194;50.950;5.346;2023-04-22T07:36:07;15.10;30.40
33903;DHT22;20194;50.950;5.346;2023-04-22T07:38:32;14.60;36.30
33903;DHT22;20194;50.950;5.346;2023-04-22T07:40:58;14.60;37.40
33903;DHT22;20194;50.950;5.346;2023-04-22T07:43:24;14.70;35.30
33903;DHT22;20194;50.950;5.346;2023-04-22T07:45:50;15.00;35.10
33903;DHT22;20194;50.950;5.346;2023-04-22T07:48:15;15.10;31.50
33903;DHT22;20194;50.950;5.346;2023-04-22T07:50:41;15.10;34.40
33903;DHT22;20194;50.950;5.346;2023-04-22T07:53:07;15.30;29.70
33903;DHT22;20194;50.950;5.346;2023-04-22T07:55:35;15.50;31.00
33903;DHT22;20194;50.950;5.346;2023-04-22T07:58:01;15.50;27.70
33903;DHT22;20194;50.950;5.346;2023-04-22T08:00:33;15.60;29.10
33903;DHT22;20194;50.950;5.346;2023-04-22T08:02:59;15.60;28.20
33903;DHT22;20194;50.950;5.346;2023-04-22T08:05:25;15.80;29.60
33903;DHT22;20194;50.950;5.346;2023-04-22T08:07:52;15.90;26.40
33903;DHT22;20194;50.950;5.346;2023-04-22T08:10:18;16.10;25.80
33903;DHT22;20194;50.950;5.346;2023-04-22T08:12:43;16.50;21.70
33903;DHT22;20194;50.950;5.346;2023-04-22T08:15:09;16.90;19.60
33903;DHT22;20194;50.950;5.346;2023-04-22T08:17:35;17.20;12.90
33903;DHT22;20194;50.950;5.346;2023-04-22T08:20:01;17.20;12.00
33903;DHT22;20194;50.950;5.346;2023-04-22T08:22:26;17.20;13.90
33903;DHT22;20194;50.950;5.346;2023-04-22T08:24:52;16.90;17.70
33903;DHT22;20194;50.950;5.346;2023-04-22T08:27:20;17.00;15.00
33903;DHT22;20194;50.950;5.346;2023-04-22T08:29:46;17.10;16.10
33903;DHT22;20194;50.950;5.346;2023-04-22T08:32:12;17.30;13.20
33903;DHT22;20194;50.950;5.346;2023-04-22T08:34:37;17.40;9.40
33903;DHT22;20194;50.950;5.346;2023-04-22T08:37:03;17.50;15.70
33903;DHT22;20194;50.950;5.346;2023-04-22T08:39:29;17.40;12.50
33903;DHT22;20194;50.950;5.346;2023-04-22T08:41:55;17.30;9.30
33903;DHT22;20194;50.950;5.346;2023-04-22T08:44:22;17.30;9.20
33903;DHT22;20194;50.950;5.346;2023-04-22T08:46:50;17.30;9.60
33903;DHT22;20194;50.950;5.346;2023-04-22T08:49:16;17.30;10.70
33903;DHT22;20194;50.950;5.346;2023-04-22T08:51:43;17.60;11.70
33903;DHT22;20194;50.950;5.346;2023-04-22T08:54:10;17.70;3.20
33903;DHT22;20194;50.950;5.346;2023-04-22T08:56:39;17.80;8.50
33903;DHT22;20194;50.950;5.346;2023-04-22T08:59:06;17.90;3.50
33903;DHT22;20194;50.950;5.346;2023-04-22T09:01:32;18.00;5.20
33903;DHT22;20194;50.950;5.346;2023-04-22T09:03:58;18.30;3.70
33903;DHT22;20194;50.950;5.346;2023-04-22T09:06:25;18.30;1.00
33903;DHT22;20194;50.950;5.346;2023-04-22T09:08:52;18.40;2.30
33903;DHT22;20194;50.950;5.346;2023-04-22T09:11:18;18.50;3.40
33903;DHT22;20194;50.950;5.346;2023-04-22T09:13:44;18.70;1.40
33903;DHT22;20194;50.950;5.346;2023-04-22T09:16:09;18.80;1.00
33903;DHT22;20194;50.950;5.346;2023-04-22T09:18:42;19.00;1.00
33903;DHT22;20194;50.950;5.346;2023-04-22T09:21:10;19.20;1.00
33903;DHT22;20194;50.950;5.346;2023-04-22T09:23:47;19.20;1.00
33903;DHT22;20194;50.950;5.346;2023-04-22T09:26:13;19.10;1.00
33903;DHT22;20194;50.950;5.346;2023-04-22T09:28:52;19.10;1.00
33903;DHT22;20194;50.950;5.346;2023-04-22T09:34:53;19.30;1.00
33903;DHT22;20194;50.950;5.346;2023-04-22T09:37:23;19.50;1.00
33903;DHT22;20194;50.950;5.346;2023-04-22T09:39:50;19.30;1.00
33903;DHT22;20194;50.950;5.346;2023-04-22T09:42:16;18.90;1.00
33903;DHT22;20194;50.950;5.346;2023-04-22T09:44:44;18.80;1.00
33903;DHT22;20194;50.950;5.346;2023-04-22T09:47:11;18.90;1.00
33903;DHT22;20194;50.950;5.346;2023-04-22T09:49:37;19.20;1.00
33903;DHT22;20194;50.950;5.346;2023-04-22T09:52:04;19.30;1.00
33903;DHT22;20194;50.950;5.346;2023-04-22T09:54:30;19.50;1.00
33903;DHT22;20194;50.950;5.346;2023-04-22T09:56:56;19.50;1.00
33903;DHT22;20194;50.950;5.346;2023-04-22T09:59:26;19.20;1.00
33903;DHT22;20194;50.950;5.346;2023-04-22T10:01:55;19.10;1.00
33903;DHT22;20194;50.950;5.346;2023-04-22T10:04:21;18.90;1.00
33903;DHT22;20194;50.950;5.346;2023-04-22T10:06:53;18.70;1.00
33903;DHT22;20194;50.950;5.346;2023-04-22T10:09:21;18.70;1.00
33903;DHT22;20194;50.950;5.346;2023-04-22T10:11:50;18.80;1.00
33903;DHT22;20194;50.950;5.346;2023-04-22T10:14:16;18.80;1.00
33903;DHT22;20194;50.950;5.346;2023-04-22T10:16:45;18.80;1.00
33903;DHT22;20194;50.950;5.346;2023-04-22T10:19:15;18.80;1.00
33903;DHT22;20194;50.950;5.346;2023-04-22T10:21:43;18.50;1.00
33903;DHT22;20194;50.950;5.346;2023-04-22T10:24:16;18.40;1.00
33903;DHT22;20194;50.950;5.346;2023-04-22T10:26:52;18.40;1.00
33903;DHT22;20194;50.950;5.346;2023-04-22T10:29:19;18.40;1.00
33903;DHT22;20194;50.950;5.346;2023-04-22T10:32:22;18.50;1.00
33903;DHT22;20194;50.950;5.346;2023-04-22T10:35:07;18.50;1.00
33903;DHT22;20194;50.950;5.346;2023-04-22T10:37:33;18.50;1.00
33903;DHT22;20194;50.950;5.346;2023-04-22T10:40:07;18.50;1.00
33903;DHT22;20194;50.950;5.346;2023-04-22T10:42:34;18.50;1.00
33903;DHT22;20194;50.950;5.346;2023-04-22T10:45:01;18.30;1.00
33903;DHT22;20194;50.950;5.346;2023-04-22T10:47:36;18.10;1.00
33903;DHT22;20194;50.950;5.346;2023-04-22T10:52:55;18.10;4.50
33903;DHT22;20194;50.950;5.346;2023-04-22T10:55:21;18.10;5.60
33903;DHT22;20194;50.950;5.346;2023-04-22T10:57:49;17.80;8.70
33903;DHT22;20194;50.950;5.346;2023-04-22T11:00:28;17.70;10.40
33903;DHT22;20194;50.950;5.346;2023-04-22T11:03:08;17.70;13.40
33903;DHT22;20194;50.950;5.346;2023-04-22T11:05:35;17.80;13.00
33903;DHT22;20194;50.950;5.346;2023-04-22T11:08:18;17.70;13.20
33903;DHT22;20194;50.950;5.346;2023-04-22T11:10:47;17.80;14.40
33903;DHT22;20194;50.950;5.346;2023-04-22T11:13:15;17.80;11.80
33903;DHT22;20194;50.950;5.346;2023-04-22T11:15:43;17.80;11.90
33903;DHT22;20194;50.950;5.346;2023-04-22T11:18:14;17.80;11.30
33903;DHT22;20194;50.950;5.346;2023-04-22T11:20:40;17.80;12.10
33903;DHT22;20194;50.950;5.346;2023-04-22T11:23:05;17.80;11.90
33903;DHT22;20194;50.950;5.346;2023-04-22T11:25:31;17.70;12.20
33903;DHT22;20194;50.950;5.346;2023-04-22T11:27:58;17.60;14.90
33903;DHT22;20194;50.950;5.346;2023-04-22T11:30:26;17.50;17.60
33903;DHT22;20194;50.950;5.346;2023-04-22T11:32:57;17.50;18.60
33903;DHT22;20194;50.950;5.346;2023-04-22T11:35:24;17.30;19.90
33903;DHT22;20194;50.950;5.346;2023-04-22T11:37:57;17.30;20.50
33903;DHT22;20194;50.950;5.346;2023-04-22T11:40:42;17.30;16.50
33903;DHT22;20194;50.950;5.346;2023-04-22T11:43:10;17.30;17.30
33903;DHT22;20194;50.950;5.346;2023-04-22T11:45:37;17.30;15.90
33903;DHT22;20194;50.950;5.346;2023-04-22T11:48:05;17.40;15.00
33903;DHT22;20194;50.950;5.346;2023-04-22T11:50:33;17.40;16.10
33903;DHT22;20194;50.950;5.346;2023-04-22T11:53:10;17.50;16.00
33903;DHT22;20194;50.950;5.346;2023-04-22T11:55:38;17.60;17.60
33903;DHT22;20194;50.950;5.346;2023-04-22T11:58:05;17.60;14.00
33903;DHT22;20194;50.950;5.346;2023-04-22T12:00:39;17.60;16.50
33903;DHT22;20194;50.950;5.346;2023-04-22T12:03:07;17.50;18.70
33903;DHT22;20194;50.950;5.346;2023-04-22T12:05:41;17.30;24.10
33903;DHT22;20194;50.950;5.346;2023-04-22T12:08:11;17.20;29.20
33903;DHT22;20194;50.950;5.346;2023-04-22T12:10:46;17.10;32.40
33903;DHT22;20194;50.950;5.346;2023-04-22T12:13:19;17.00;34.30
33903;DHT22;20194;50.950;5.346;2023-04-22T12:15:45;16.90;34.60
33903;DHT22;20194;50.950;5.346;2023-04-22T12:18:11;16.90;34.80
33903;DHT22;20194;50.950;5.346;2023-04-22T12:20:41;16.90;37.70
33903;DHT22;20194;50.950;5.346;2023-04-22T12:23:16;17.00;40.60
33903;DHT22;20194;50.950;5.346;2023-04-22T12:25:42;17.10;37.70
33903;DHT22;20194;50.950;5.346;2023-04-22T12:28:08;17.10;36.90
33903;DHT22;20194;50.950;5.346;2023-04-22T12:30:34;17.10;39.10
33903;DHT22;20194;50.950;5.346;2023-04-22T12:33:00;17.10;36.50
33903;DHT22;20194;50.950;5.346;2023-04-22T12:35:26;17.20;32.00
33903;DHT22;20194;50.950;5.346;2023-04-22T12:37:52;17.20;30.90
33903;DHT22;20194;50.950;5.346;2023-04-22T12:40:17;17.30;30.00
33903;DHT22;20194;50.950;5.346;2023-04-22T12:42:43;17.30;30.10
33903;DHT22;20194;50.950;5.346;2023-04-22T12:45:09;17.30;29.80
33903;DHT22;20194;50.950;5.346;2023-04-22T12:47:35;17.30;28.80
33903;DHT22;20194;50.950;5.346;2023-04-22T12:50:01;17.20;28.50
33903;DHT22;20194;50.950;5.346;2023-04-22T12:52:31;17.10;28.30
33903;DHT22;20194;50.950;5.346;2023-04-22T12:54:58;16.90;28.80
33903;DHT22;20194;50.950;5.346;2023-04-22T12:57:25;17.00;29.70
33903;DHT22;20194;50.950;5.346;2023-04-22T12:59:50;17.00;28.50
33903;DHT22;20194;50.950;5.346;2023-04-22T13:02:16;16.90;29.50
33903;DHT22;20194;50.950;5.346;2023-04-22T13:04:42;16.90;29.10
33903;DHT22;20194;50.950;5.346;2023-04-22T13:07:08;16.90;30.60
33903;DHT22;20194;50.950;5.346;2023-04-22T13:09:33;16.90;32.60
33903;DHT22;20194;50.950;5.346;2023-04-22T13:11:59;16.80;34.50
33903;DHT22;20194;50.950;5.346;2023-04-22T13:14:25;16.80;38.10
33903;DHT22;20194;50.950;5.346;2023-04-22T13:16:51;16.70;40.30
33903;DHT22;20194;50.950;5.346;2023-04-22T13:19:17;16.50;48.10
33903;DHT22;20194;50.950;5.346;2023-04-22T13:21:42;16.30;52.90
33903;DHT22;20194;50.950;5.346;2023-04-22T13:24:09;16.10;57.60
33903;DHT22;20194;50.950;5.346;2023-04-22T13:26:36;15.90;63.70
33903;DHT22;20194;50.950;5.346;2023-04-22T13:29:03;15.80;67.10
33903;DHT22;20194;50.950;5.346;2023-04-22T13:31:35;15.70;70.80
33903;DHT22;20194;50.950;5.346;2023-04-22T13:34:01;15.60;72.90
33903;DHT22;20194;50.950;5.346;2023-04-22T13:36:26;15.60;73.60
33903;DHT22;20194;50.950;5.346;2023-04-22T13:38:52;15.70;74.90
33903;DHT22;20194;50.950;5.346;2023-04-22T13:41:18;15.70;75.00
33903;DHT22;20194;50.950;5.346;2023-04-22T13:43:44;15.70;75.60
33903;DHT22;20194;50.950;5.346;2023-04-22T13:46:09;15.70;74.40
33903;DHT22;20194;50.950;5.346;2023-04-22T13:48:35;15.60;73.90
33903;DHT22;20194;50.950;5.346;2023-04-22T13:51:01;15.80;73.90
33903;DHT22;20194;50.950;5.346;2023-04-22T13:53:27;15.80;72.90
33903;DHT22;20194;50.950;5.346;2023-04-22T13:55:52;15.70;72.70
33903;DHT22;20194;50.950;5.346;2023-04-22T13:58:18;15.60;73.40
33903;DHT22;20194;50.950;5.346;2023-04-22T14:00:44;15.60;74.50
33903;DHT22;20194;50.950;5.346;2023-04-22T14:03:10;15.60;73.00
33903;DHT22;20194;50.950;5.346;2023-04-22T14:05:35;15.80;73.00
33903;DHT22;20194;50.950;5.346;2023-04-22T14:08:02;15.90;71.20
33903;DHT22;20194;50.950;5.346;2023-04-22T14:10:28;15.90;71.00
33903;DHT22;20194;50.950;5.346;2023-04-22T14:12:53;16.00;70.50
33903;DHT22;20194;50.950;5.346;2023-04-22T14:15:19;15.90;67.80
33903;DHT22;20194;50.950;5.346;2023-04-22T14:17:45;15.80;70.40
33903;DHT22;20194;50.950;5.346;2023-04-22T14:20:13;15.60;70.80
33903;DHT22;20194;50.950;5.346;2023-04-22T14:22:39;15.70;71.70
33903;DHT22;20194;50.950;5.346;2023-04-22T14:25:06;15.80;70.20
33903;DHT22;20194;50.950;5.346;2023-04-22T14:27:31;15.90;69.30
33903;DHT22;20194;50.950;5.346;2023-04-22T14:29:57;15.80;69.80
33903;DHT22;20194;50.950;5.346;2023-04-22T14:32:23;15.80;69.40
33903;DHT22;20194;50.950;5.346;2023-04-22T14:34:50;15.80;70.10
33903;DHT22;20194;50.950;5.346;2023-04-22T14:37:16;15.70;69.30
33903;DHT22;20194;50.950;5.346;2023-04-22T14:39:41;15.60;72.90
33903;DHT22;20194;50.950;5.346;2023-04-22T14:42:07;15.60;71.10
33903;DHT22;20194;50.950;5.346;2023-04-22T14:44:33;15.60;71.60
33903;DHT22;20194;50.950;5.346;2023-04-22T14:46:59;15.50;70.80
33903;DHT22;20194;50.950;5.346;2023-04-22T14:49:24;15.50;70.00
33903;DHT22;20194;50.950;5.346;2023-04-22T14:51:51;15.40;70.30
33903;DHT22;20194;50.950;5.346;2023-04-22T14:54:16;15.50;70.90
33903;DHT22;20194;50.950;5.346;2023-04-22T14:56:42;15.50;68.60
33903;DHT22;20194;50.950;5.346;2023-04-22T14:59:08;15.50;69.50
33903;DHT22;20194;50.950;5.346;2023-04-22T15:01:33;15.60;66.90
33903;DHT22;20194;50.950;5.346;2023-04-22T15:04:00;15.60;67.60
33903;DHT22;20194;50.950;5.346;2023-04-22T15:06:26;15.50;67.90
33903;DHT22;20194;50.950;5.346;2023-04-22T15:08:52;15.50;66.50
33903;DHT22;20194;50.950;5.346;2023-04-22T15:11:18;15.50;67.10
33903;DHT22;20194;50.950;5.346;2023-04-22T15:13:44;15.50;66.40
33903;DHT22;20194;50.950;5.346;2023-04-22T15:16:10;15.60;66.40
33903;DHT22;20194;50.950;5.346;2023-04-22T15:18:37;15.60;65.20
33903;DHT22;20194;50.950;5.346;2023-04-22T15:21:03;15.70;64.60
33903;DHT22;20194;50.950;5.346;2023-04-22T15:23:31;15.70;63.00
33903;DHT22;20194;50.950;5.346;2023-04-22T15:25:57;15.70;63.00
33903;DHT22;20194;50.950;5.346;2023-04-22T15:28:23;15.60;63.20
33903;DHT22;20194;50.950;5.346;2023-04-22T15:30:51;15.60;61.40
33903;DHT22;20194;50.950;5.346;2023-04-22T15:33:17;15.70;62.90
33903;DHT22;20194;50.950;5.346;2023-04-22T15:35:43;15.60;63.00